createdAt,value
2022-08-17T00:00:43.447Z,1.17
2022-08-17T00:03:22.284Z,1.42
2022-08-17T00:05:53.061Z,1.25
2022-08-17T00:08:27.322Z,1.20
2022-08-17T00:10:56.229Z,1.10
2022-08-17T00:13:33.052Z,1.20
2022-08-17T00:16:07.418Z,1.40
2022-08-17T00:19:02.079Z,1.42
2022-08-17T00:22:30.934Z,1.20
2022-08-17T00:24:20.673Z,1.70
2022-08-17T00:26:51.804Z,1.50
2022-08-17T00:29:20.342Z,1.40
2022-08-17T00:31:50.871Z,1.45
2022-08-17T00:34:19.006Z,1.40
2022-08-17T00:36:47.020Z,1.60
2022-08-17T00:39:15.095Z,1.50
2022-08-17T00:41:43.081Z,1.40
2022-08-17T00:44:11.794Z,1.40
2022-08-17T00:46:44.306Z,1.58
2022-08-17T00:49:14.956Z,1.63
2022-08-17T00:51:53.240Z,2.17
2022-08-17T00:54:42.048Z,2.15
2022-08-17T00:57:16.478Z,2.40
2022-08-17T01:00:01.956Z,2.80
2022-08-17T01:02:41.202Z,1.00
2022-08-17T01:05:25.349Z,2.88
2022-08-17T01:07:53.853Z,25.30
2022-08-17T01:11:00.084Z,107.38
2022-08-17T01:13:21.446Z,103.35
2022-08-17T01:16:16.503Z,9.35
2022-08-17T01:18:46.863Z,13.68
2022-08-17T01:21:42.069Z,2.90
2022-08-17T01:24:12.847Z,1.23
2022-08-17T01:26:45.201Z,7.68
2022-08-17T01:29:14.255Z,17.77
2022-08-17T01:31:51.334Z,6.82
2022-08-17T01:34:21.969Z,1.17
2022-08-17T01:36:50.962Z,1.80
2022-08-17T01:39:22.656Z,2.20
2022-08-17T01:41:54.494Z,1.40
2022-08-17T01:44:23.262Z,1.55
2022-08-17T01:46:51.353Z,1.88
2022-08-17T01:49:20.474Z,1.15
2022-08-17T01:51:51.209Z,0.95
2022-08-17T01:54:20.279Z,0.95
2022-08-17T01:56:51.745Z,0.73
2022-08-17T01:59:22.215Z,0.90
2022-08-17T02:01:53.210Z,1.10
2022-08-17T02:04:21.423Z,1.45
2022-08-17T02:06:53.573Z,1.00
2022-08-17T02:09:25.369Z,1.30
2022-08-17T02:11:56.339Z,1.00
2022-08-17T02:14:25.573Z,1.20
2022-08-17T02:16:56.035Z,1.20
2022-08-17T02:19:24.145Z,1.50
2022-08-17T02:21:54.046Z,1.30
2022-08-17T02:24:58.461Z,1.40
2022-08-17T02:27:13.968Z,1.80
2022-08-17T02:29:42.089Z,1.77
2022-08-17T02:32:28.061Z,1.60
2022-08-17T02:35:03.052Z,1.73
2022-08-17T02:37:34.043Z,1.58
2022-08-17T02:40:02.531Z,2.03
2022-08-17T02:42:36.819Z,1.52
2022-08-17T02:45:10.865Z,1.60
2022-08-17T02:47:41.815Z,2.13
2022-08-17T02:50:14.367Z,2.00
2022-08-17T02:52:51.494Z,2.25
2022-08-17T02:55:34.369Z,2.08
2022-08-17T02:58:02.636Z,1.97
2022-08-17T03:00:39.239Z,1.52
2022-08-17T03:03:07.795Z,1.70
2022-08-17T03:05:37.549Z,1.75
2022-08-17T03:08:11.680Z,1.48
2022-08-17T03:10:45.186Z,1.60
2022-08-17T03:13:14.550Z,1.75
2022-08-17T03:15:44.675Z,1.42
2022-08-17T03:18:19.095Z,1.83
2022-08-17T03:20:58.296Z,1.75
2022-08-17T03:23:27.533Z,1.63
2022-08-17T03:25:58.084Z,1.60
2022-08-17T03:28:29.336Z,1.95
2022-08-17T03:30:57.357Z,2.10
2022-08-17T03:33:25.423Z,2.10
2022-08-17T03:35:53.544Z,1.65
2022-08-17T03:38:21.728Z,2.28
2022-08-17T03:40:58.897Z,1.98
2022-08-17T03:43:30.995Z,2.25
2022-08-17T03:46:00.217Z,2.28
2022-08-17T03:48:28.723Z,2.05
2022-08-17T03:50:57.822Z,2.40
2022-08-17T03:53:25.878Z,2.35
2022-08-17T03:55:53.968Z,2.00
2022-08-17T03:58:22.316Z,2.00
2022-08-17T04:00:51.231Z,1.80
2022-08-17T04:03:19.312Z,1.85
2022-08-17T04:05:47.438Z,2.17
2022-08-17T04:08:20.757Z,2.22
2022-08-17T04:10:48.907Z,1.60
2022-08-17T04:13:24.252Z,1.48
2022-08-17T04:15:54.157Z,1.58
2022-08-17T04:18:22.236Z,1.30
2022-08-17T04:20:50.305Z,2.10
2022-08-17T04:23:19.884Z,1.38
2022-08-17T04:25:52.356Z,1.30
2022-08-17T04:28:21.418Z,1.60
2022-08-17T04:30:52.353Z,1.42
2022-08-17T04:33:22.769Z,1.52
2022-08-17T04:35:53.309Z,1.65
2022-08-17T04:38:24.018Z,2.38
2022-08-17T04:40:52.784Z,3.08
2022-08-17T04:43:23.236Z,2.22
2022-08-17T04:45:56.253Z,1.80
2022-08-17T04:48:35.625Z,1.90
2022-08-17T04:51:20.386Z,2.10
2022-08-17T04:53:54.665Z,1.70
2022-08-17T04:56:24.527Z,1.60
2022-08-17T04:58:57.042Z,3.15
2022-08-17T05:01:29.521Z,3.15
2022-08-17T05:04:32.972Z,3.22
2022-08-17T05:06:51.429Z,2.25
2022-08-17T05:09:19.608Z,2.35
2022-08-17T05:11:49.999Z,2.35
2022-08-17T05:14:20.727Z,2.60
2022-08-17T05:16:55.330Z,2.95
2022-08-17T05:19:23.383Z,2.28
2022-08-17T05:21:54.247Z,2.65
2022-08-17T05:24:39.137Z,2.10
2022-08-17T05:27:10.353Z,1.50
2022-08-17T05:29:47.730Z,1.67
2022-08-17T05:32:38.769Z,1.67
2022-08-17T05:35:07.314Z,1.75
2022-08-17T05:37:35.359Z,1.90
2022-08-17T05:40:03.543Z,1.50
2022-08-17T05:42:34.506Z,1.92
2022-08-17T05:45:05.588Z,2.00
2022-08-17T05:47:33.802Z,1.90
2022-08-17T05:50:02.520Z,2.00
2022-08-17T05:52:49.234Z,1.77
2022-08-17T05:55:23.438Z,1.80
2022-08-17T05:57:54.110Z,1.45
2022-08-17T06:00:30.568Z,1.70
2022-08-17T06:03:20.769Z,2.08
2022-08-17T06:06:15.919Z,1.70
2022-08-17T06:08:58.182Z,1.60
2022-08-17T06:11:46.419Z,1.48
2022-08-17T06:14:32.268Z,1.55
2022-08-17T06:17:06.943Z,1.75
2022-08-17T06:19:57.417Z,2.05
2022-08-17T06:22:29.403Z,1.65
2022-08-17T06:24:57.432Z,1.60
2022-08-17T06:28:03.529Z,1.95
2022-08-17T06:30:57.808Z,1.52
2022-08-17T06:33:37.086Z,1.70
2022-08-17T06:36:23.323Z,1.50
2022-08-17T06:39:13.920Z,2.30
2022-08-17T06:42:10.815Z,1.73
2022-08-17T06:45:15.727Z,1.60
2022-08-17T06:48:09.622Z,1.13
2022-08-17T06:50:42.579Z,1.40
2022-08-17T06:53:32.394Z,1.80
2022-08-17T06:56:07.310Z,2.13
2022-08-17T06:58:36.687Z,1.60
2022-08-17T07:01:18.913Z,1.70
2022-08-17T07:03:46.978Z,2.05
2022-08-17T07:06:25.093Z,1.75
2022-08-17T07:09:04.504Z,1.38
2022-08-17T07:11:40.183Z,1.48
2022-08-17T07:14:34.544Z,1.50
2022-08-17T07:17:10.338Z,1.75
2022-08-17T07:19:40.642Z,1.70
2022-08-17T07:22:50.591Z,1.80
2022-08-17T07:25:23.127Z,1.30
2022-08-17T07:27:54.097Z,1.60
2022-08-17T07:30:28.448Z,1.27
2022-08-17T07:33:13.454Z,1.60
2022-08-17T07:35:45.906Z,1.73
2022-08-17T07:38:25.259Z,2.00
2022-08-17T07:40:57.347Z,1.90
2022-08-17T07:43:29.736Z,1.88
2022-08-17T07:46:20.521Z,1.73
2022-08-17T07:48:59.302Z,1.60
2022-08-17T07:51:29.530Z,1.60
2022-08-17T07:54:14.162Z,1.88
2022-08-17T07:56:49.785Z,1.77
2022-08-17T07:59:23.060Z,1.80
2022-08-17T08:01:57.986Z,1.50
2022-08-17T08:07:35.397Z,1.58
2022-08-17T08:10:16.543Z,1.58
2022-08-17T08:12:46.454Z,1.60
2022-08-17T08:15:24.995Z,1.77
2022-08-17T08:17:59.714Z,1.73
2022-08-17T08:20:53.265Z,1.73
2022-08-17T08:23:32.272Z,2.15
2022-08-17T08:26:18.978Z,1.50
2022-08-17T08:29:07.329Z,1.80
2022-08-17T08:31:57.797Z,2.10
2022-08-17T08:35:02.672Z,1.90
2022-08-17T08:37:42.016Z,1.77
2022-08-17T08:40:31.769Z,1.30
2022-08-17T08:43:17.864Z,1.42
2022-08-17T08:46:10.771Z,2.05
2022-08-17T08:49:59.007Z,1.40
2022-08-17T08:52:42.144Z,1.67
2022-08-17T08:55:25.266Z,1.40
2022-08-17T08:58:08.792Z,1.52
2022-08-17T09:01:03.217Z,1.75
2022-08-17T09:04:18.317Z,1.65
2022-08-17T09:07:18.382Z,1.45
2022-08-17T09:09:53.367Z,1.77
2022-08-17T09:12:42.779Z,2.17
2022-08-17T09:15:24.214Z,1.80
2022-08-17T09:19:02.745Z,1.40
2022-08-17T09:20:58.207Z,1.77
2022-08-17T09:23:40.270Z,1.80
2022-08-17T09:26:11.383Z,1.75
2022-08-17T09:28:43.062Z,2.60
2022-08-17T09:31:15.994Z,1.58
2022-08-17T09:33:48.326Z,1.75
2022-08-17T09:36:27.081Z,1.33
2022-08-17T09:39:10.035Z,1.45
2022-08-17T09:41:48.959Z,1.20
2022-08-17T09:44:37.083Z,2.03
2022-08-17T09:47:19.691Z,1.52
2022-08-17T09:49:57.190Z,1.42
2022-08-17T09:52:27.259Z,1.38
2022-08-17T09:54:56.951Z,1.55
2022-08-17T09:57:33.983Z,1.60
2022-08-17T10:00:25.147Z,1.67
2022-08-17T10:03:11.179Z,1.90
2022-08-17T10:06:00.031Z,1.33
2022-08-17T10:08:49.767Z,1.70
2022-08-17T10:11:33.441Z,2.08
2022-08-17T10:14:24.068Z,1.50
2022-08-17T10:17:49.362Z,2.03
2022-08-17T10:20:21.555Z,1.55
2022-08-17T10:23:08.019Z,2.15
2022-08-17T10:25:56.742Z,1.60
2022-08-17T10:28:30.084Z,1.67
2022-08-17T10:31:33.549Z,1.60
2022-08-17T10:34:16.357Z,1.52
2022-08-17T10:37:01.994Z,1.90
2022-08-17T10:39:50.482Z,1.50
2022-08-17T10:42:47.867Z,1.30
2022-08-17T10:45:20.200Z,1.70
2022-08-17T10:48:01.339Z,1.77
2022-08-17T10:50:51.519Z,1.58
2022-08-17T10:53:34.596Z,2.10
2022-08-17T10:56:14.729Z,1.60
2022-08-17T10:59:02.043Z,1.52
2022-08-17T11:01:33.236Z,1.70
2022-08-17T11:04:25.086Z,1.80
2022-08-17T11:07:13.809Z,1.40
2022-08-17T11:10:00.200Z,1.60
2022-08-17T11:12:36.284Z,1.58
2022-08-17T11:15:39.717Z,1.48
2022-08-17T11:18:25.640Z,1.42
2022-08-17T11:21:14.636Z,1.73
2022-08-17T11:23:48.055Z,1.50
2022-08-17T11:26:23.621Z,1.85
2022-08-17T11:28:53.400Z,1.95
2022-08-17T11:31:39.291Z,1.75
2022-08-17T11:34:27.050Z,1.92
2022-08-17T11:37:20.120Z,1.92
2022-08-17T11:40:14.674Z,2.00
2022-08-17T11:42:48.954Z,1.70
2022-08-17T11:45:55.549Z,1.98
2022-08-17T11:48:28.398Z,1.60
2022-08-17T11:51:07.143Z,1.93
2022-08-17T11:53:37.931Z,1.48
2022-08-17T11:56:33.507Z,2.00
2022-08-17T11:59:04.879Z,1.92
2022-08-17T12:01:51.499Z,1.50
2022-08-17T12:04:22.573Z,1.60
2022-08-17T12:06:54.573Z,2.13
2022-08-17T12:09:23.225Z,2.47
2022-08-17T12:12:12.763Z,1.90
2022-08-17T12:20:25.509Z,2.00
2022-08-17T12:23:21.665Z,1.83
2022-08-17T12:26:12.974Z,1.60
2022-08-17T12:28:46.337Z,1.83
2022-08-17T12:31:17.343Z,2.05
2022-08-17T12:33:48.647Z,2.00
2022-08-17T12:36:20.198Z,1.67
2022-08-17T12:38:53.150Z,1.83
2022-08-17T12:41:42.937Z,2.05
2022-08-17T12:44:15.866Z,1.95
2022-08-17T12:47:17.991Z,2.38
2022-08-17T12:49:51.762Z,1.50
2022-08-17T12:52:24.751Z,1.90
2022-08-17T12:54:59.885Z,1.63
2022-08-17T12:57:34.773Z,2.58
2022-08-17T13:00:32.045Z,2.00
2022-08-17T13:03:09.290Z,2.30
2022-08-17T13:05:55.093Z,2.30
2022-08-17T13:08:44.518Z,1.88
2022-08-17T13:11:15.591Z,2.08
2022-08-17T13:13:45.962Z,2.10
2022-08-17T13:16:13.935Z,1.75
2022-08-17T13:18:45.305Z,1.73
2022-08-17T13:21:19.280Z,2.10
2022-08-17T13:24:08.263Z,2.13
2022-08-17T13:26:45.588Z,1.70
2022-08-17T13:29:38.455Z,1.55
2022-08-17T13:32:13.372Z,2.03
2022-08-17T13:35:12.664Z,2.03
2022-08-17T13:37:36.596Z,2.38
2022-08-17T13:40:10.816Z,2.05
2022-08-17T13:42:53.028Z,1.73
2022-08-17T13:45:36.537Z,1.80
2022-08-17T13:48:31.733Z,1.90
2022-08-17T13:53:53.619Z,2.15
2022-08-17T13:56:39.333Z,2.40
2022-08-17T13:59:18.507Z,1.75
2022-08-17T14:02:11.068Z,2.33
2022-08-17T14:04:44.065Z,2.22
2022-08-17T14:07:12.040Z,1.70
2022-08-17T14:10:17.827Z,1.58
2022-08-17T14:12:48.452Z,1.67
2022-08-17T14:15:18.491Z,1.95
2022-08-17T14:17:46.651Z,1.83
2022-08-17T14:20:19.114Z,2.50
2022-08-17T14:22:49.908Z,1.70
2022-08-17T14:25:22.616Z,2.15
2022-08-17T14:27:53.375Z,2.28
2022-08-17T14:30:31.238Z,2.47
2022-08-17T14:33:04.455Z,1.80
2022-08-17T14:35:32.527Z,2.17
2022-08-17T14:38:00.684Z,1.92
2022-08-17T14:40:29.086Z,2.00
2022-08-17T14:42:57.737Z,2.35
2022-08-17T14:45:27.402Z,1.85
2022-08-17T14:48:05.923Z,1.85
2022-08-17T14:50:35.542Z,2.20
2022-08-17T14:53:04.992Z,2.03
2022-08-17T14:55:33.361Z,1.90
2022-08-17T14:58:01.372Z,1.75
2022-08-17T15:00:29.483Z,2.58
2022-08-17T15:02:59.247Z,2.00
2022-08-17T15:05:33.934Z,1.95
2022-08-17T15:08:02.773Z,1.77
2022-08-17T15:10:34.309Z,2.10
2022-08-17T15:13:02.449Z,2.15
2022-08-17T15:15:31.052Z,2.50
2022-08-17T15:17:59.341Z,2.17
2022-08-17T15:20:29.412Z,2.20
2022-08-17T15:22:58.451Z,2.45
2022-08-17T15:25:28.010Z,1.90
2022-08-17T15:27:56.341Z,2.20
2022-08-17T15:30:25.061Z,1.90
2022-08-17T15:32:56.795Z,1.88
2022-08-17T15:35:30.537Z,2.40
2022-08-17T15:38:08.361Z,2.10
2022-08-17T15:40:43.444Z,2.10
2022-08-17T15:43:24.788Z,2.05
2022-08-17T15:46:07.006Z,1.90
2022-08-17T15:48:35.842Z,1.88
2022-08-17T15:51:06.951Z,2.28
2022-08-17T15:53:35.247Z,2.05
2022-08-17T15:56:03.408Z,1.92
2022-08-17T15:58:34.713Z,2.10
2022-08-17T16:01:16.671Z,2.05
2022-08-17T16:04:04.821Z,2.17
2022-08-17T16:06:35.359Z,2.05
2022-08-17T16:09:03.956Z,2.03
2022-08-17T16:11:31.972Z,2.55
2022-08-17T16:14:00.008Z,2.33
2022-08-17T16:16:28.617Z,2.03
2022-08-17T16:18:59.337Z,2.03
2022-08-17T16:21:27.683Z,2.25
2022-08-17T16:23:58.990Z,2.40
2022-08-17T16:26:28.599Z,2.80
2022-08-17T16:28:57.762Z,2.17
2022-08-17T16:31:26.138Z,3.20
2022-08-17T16:34:15.517Z,2.75
2022-08-17T16:36:55.598Z,2.53
2022-08-17T16:39:28.975Z,3.42
2022-08-17T16:42:00.686Z,3.25
2022-08-17T16:44:31.745Z,3.42
2022-08-17T16:47:01.059Z,3.08
2022-08-17T16:49:36.974Z,3.00
2022-08-17T16:52:07.779Z,3.30
2022-08-17T16:54:38.846Z,4.00
2022-08-17T16:57:06.915Z,3.78
2022-08-17T16:59:40.800Z,3.78
2022-08-17T17:02:14.771Z,3.25
2022-08-17T17:04:52.384Z,3.53
2022-08-17T17:07:35.880Z,3.28
2022-08-17T17:10:11.243Z,2.83
2022-08-17T17:13:02.208Z,3.47
2022-08-17T17:16:06.588Z,3.15
2022-08-17T17:18:56.248Z,3.42
2022-08-17T17:21:31.092Z,3.67
2022-08-17T17:24:06.677Z,3.00
2022-08-17T17:26:40.847Z,3.05
2022-08-17T17:29:48.354Z,2.88
2022-08-17T17:32:32.294Z,4.00
2022-08-17T17:35:09.616Z,2.65
2022-08-17T17:37:37.868Z,3.17
2022-08-17T17:40:20.788Z,3.40
2022-08-17T17:42:50.390Z,3.35
2022-08-17T17:45:30.647Z,3.85
2022-08-17T17:48:01.658Z,3.25
2022-08-17T17:51:02.805Z,2.90
2022-08-17T17:53:49.464Z,3.03
2022-08-17T17:56:43.223Z,3.50
2022-08-17T17:59:50.961Z,2.92
2022-08-17T18:02:36.511Z,2.90
2022-08-17T18:05:31.074Z,3.08
2022-08-17T18:08:12.312Z,3.20
2022-08-17T18:10:53.398Z,2.25
2022-08-17T18:13:54.761Z,2.70
2022-08-17T18:16:23.663Z,2.78
2022-08-17T18:18:52.263Z,2.75
2022-08-17T18:21:26.643Z,2.60
2022-08-17T18:23:56.311Z,2.08
2022-08-17T18:26:38.738Z,2.72
2022-08-17T18:29:30.000Z,2.15
2022-08-17T18:32:20.660Z,2.50
2022-08-17T18:34:55.244Z,3.58
2022-08-17T18:37:36.277Z,2.97
2022-08-17T18:40:19.397Z,2.53
2022-08-17T18:42:56.409Z,2.55
2022-08-17T18:45:49.450Z,2.70
2022-08-17T18:48:20.219Z,2.25
2022-08-17T18:50:48.273Z,2.58
2022-08-17T18:53:34.521Z,2.05
2022-08-17T18:56:19.868Z,2.50
2022-08-17T18:59:21.827Z,2.70
2022-08-17T19:02:23.226Z,2.42
2022-08-17T19:05:11.242Z,2.08
2022-08-17T19:07:42.450Z,2.45
2022-08-17T19:10:14.587Z,2.33
2022-08-17T19:12:53.441Z,2.30
2022-08-17T19:16:11.529Z,1.95
2022-08-17T19:18:47.741Z,2.30
2022-08-17T19:21:31.116Z,2.00
2022-08-17T19:24:01.815Z,2.38
2022-08-17T19:26:54.550Z,1.70
2022-08-17T19:29:30.888Z,1.75
2022-08-17T19:31:59.826Z,1.70
2022-08-17T19:34:34.068Z,2.03
2022-08-17T19:37:31.162Z,2.00
2022-08-17T19:40:10.790Z,1.80
2022-08-17T19:42:56.603Z,2.10
2022-08-17T19:45:34.660Z,1.92
2022-08-17T19:48:18.713Z,2.05
2022-08-17T19:51:14.033Z,1.90
2022-08-17T19:54:11.150Z,1.75
2022-08-17T19:56:41.957Z,1.90
2022-08-17T19:59:47.141Z,1.73
2022-08-17T20:02:28.414Z,1.50
2022-08-17T20:04:59.983Z,2.10
2022-08-17T20:07:37.330Z,1.95
2022-08-17T20:10:14.132Z,1.65
2022-08-17T20:12:44.854Z,2.00
2022-08-17T20:15:25.479Z,2.03
2022-08-17T20:17:53.863Z,2.20
2022-08-17T20:20:21.933Z,2.28
2022-08-17T20:23:06.080Z,2.10
2022-08-17T20:26:06.403Z,2.17
2022-08-17T20:28:36.174Z,1.75
2022-08-17T20:31:40.406Z,1.52
2022-08-17T20:34:38.140Z,1.77
2022-08-17T20:37:15.336Z,1.50
2022-08-17T20:39:44.616Z,1.83
2022-08-17T20:42:21.519Z,1.80
2022-08-17T20:44:52.656Z,1.55
2022-08-17T20:48:18.678Z,1.27
2022-08-17T20:50:48.331Z,1.27
2022-08-17T20:53:48.418Z,1.23
2022-08-17T20:56:44.158Z,1.10
2022-08-17T20:59:24.115Z,1.35
2022-08-17T21:02:18.689Z,1.27
2022-08-17T21:05:45.197Z,1.58
2022-08-17T21:08:50.550Z,1.50
2022-08-17T21:12:03.169Z,1.60
2022-08-17T21:14:24.794Z,1.80
2022-08-17T21:17:23.526Z,1.63
2022-08-17T21:20:13.274Z,1.73
2022-08-17T21:23:02.059Z,1.48
2022-08-17T21:26:00.143Z,1.48
2022-08-17T21:29:00.450Z,1.73
2022-08-17T21:31:38.263Z,2.03
2022-08-17T21:34:27.709Z,1.92
2022-08-17T21:36:56.397Z,1.77
2022-08-17T21:39:34.942Z,1.88
2022-08-17T21:42:03.230Z,2.40
2022-08-17T21:44:37.246Z,1.50
2022-08-17T21:47:23.708Z,2.17
2022-08-17T21:50:14.260Z,1.60
2022-08-17T21:52:42.378Z,1.88
2022-08-17T21:55:20.667Z,1.92
2022-08-17T21:58:04.963Z,1.60
2022-08-17T22:00:42.057Z,1.60
2022-08-17T22:03:25.147Z,1.33
2022-08-17T22:05:53.229Z,1.73
2022-08-17T22:08:24.550Z,1.55
2022-08-17T22:11:01.462Z,1.30
2022-08-17T22:13:30.141Z,1.67
2022-08-17T22:16:28.052Z,1.17
2022-08-17T22:18:58.773Z,1.50
2022-08-17T22:21:27.241Z,1.48
2022-08-17T22:24:18.489Z,1.30
2022-08-17T22:27:04.431Z,1.30
2022-08-17T22:29:50.249Z,1.25
2022-08-17T22:32:42.823Z,1.30
2022-08-17T22:35:37.788Z,1.30
2022-08-17T22:38:20.865Z,1.30
2022-08-17T22:40:58.291Z,1.23
2022-08-17T22:43:27.656Z,1.10
2022-08-17T22:46:00.186Z,1.17
2022-08-17T22:48:29.873Z,1.25
2022-08-17T22:51:12.372Z,1.02
2022-08-17T22:54:03.068Z,1.30
2022-08-17T22:56:31.254Z,1.05
2022-08-17T22:59:00.606Z,0.75
2022-08-17T23:01:36.216Z,0.90
2022-08-17T23:04:12.983Z,1.20
2022-08-17T23:06:41.926Z,1.40
2022-08-17T23:09:10.090Z,1.33
2022-08-17T23:11:49.255Z,0.90
2022-08-17T23:14:20.543Z,1.10
2022-08-17T23:16:49.838Z,1.02
2022-08-17T23:19:20.845Z,1.40
2022-08-17T23:21:51.421Z,1.23
2022-08-17T23:24:28.373Z,1.02
2022-08-17T23:26:58.691Z,1.10
2022-08-17T23:29:30.624Z,1.30
2022-08-17T23:32:01.643Z,1.50
2022-08-17T23:34:29.870Z,1.40
2022-08-17T23:36:58.102Z,1.10
2022-08-17T23:39:28.086Z,1.33
2022-08-17T23:42:01.658Z,1.10
2022-08-17T23:44:29.924Z,0.80
2022-08-17T23:46:58.216Z,0.90
2022-08-17T23:49:29.257Z,1.40
2022-08-17T23:51:57.447Z,1.10
2022-08-17T23:54:28.576Z,1.05
2022-08-17T23:56:56.668Z,1.27
2022-08-17T23:59:24.963Z,1.38
